Time,TemperatureF,DewpointF,PressureIn,WindDirection,WindDirectionDegrees,WindSpeedMPH,WindSpeedGustMPH,Humidity,HourlyPrecipIn,Conditions,Clouds,dailyrainin,SoftwareType,DateUTC
2013-03-06 00:00:00,53.3,45.6,29.95,NE,53,0.0,2.0,75,0.00,CLR,FEW,0.00,WeatherDisplay:10.37,2013-03-05 23:00:00,
2013-03-06 01:00:00,56.2,43.8,29.93,ESE,107,1.0,8.0,63,0.00,CLR,FEW,0.00,WeatherDisplay:10.37,2013-03-06 00:00:00,
2013-03-06 02:00:00,54.4,44.4,29.91,NNW,333,2.0,6.0,69,0.00,CLR,FEW,0.00,WeatherDisplay:10.37,2013-03-06 01:00:00,
2013-03-06 03:00:00,56.5,43.2,29.87,North,4,1.0,9.0,61,0.00,CLR,FEW,0.00,WeatherDisplay:10.37,2013-03-06 02:00:00,
2013-03-06 04:00:00,56.7,42.5,29.85,NNE,28,1.0,5.0,59,0.00,CLR,FEW,0.00,WeatherDisplay:10.37,2013-03-06 03:00:00,
2013-03-06 05:00:00,56.1,42.8,29.85,NW,326,2.0,5.0,61,0.00,CLR,FEW,0.00,WeatherDisplay:10.37,2013-03-06 04:00:00,
2013-03-06 06:00:00,54.6,43.1,29.83,NNW,327,1.0,4.0,65,0.00,CLR,FEW,0.00,WeatherDisplay:10.37,2013-03-06 05:00:00,
2013-03-06 07:00:00,54.3,43.2,29.83,West,272,1.0,5.0,66,0.00,CLR,FEW,0.00,WeatherDisplay:10.37,2013-03-06 06:00:00,
2013-03-06 08:00:00,55.8,43.4,29.81,NNW,346,1.0,5.0,63,0.00,CLR,FEW,0.00,WeatherDisplay:10.37,2013-03-06 07:00:00,
2013-03-06 09:00:00,57.2,44.3,29.85,SW,229,2.0,6.0,62,0.00,CLR,FEW,0.00,WeatherDisplay:10.37,2013-03-06 08:00:00,
2013-03-06 10:00:00,58.3,45.7,29.81,NW,321,3.0,6.0,63,0.00,CLR,FEW,0.00,WeatherDisplay:10.37,2013-03-06 09:00:00,
2013-03-06 11:00:00,59.0,46.0,29.84,South,184,3.0,10.0,62,0.00,CLR,FEW,0.00,WeatherDisplay:10.37,2013-03-06 10:00:00,
2013-03-06 12:00:00,58.1,46.0,29.82,SSE,152,6.0,12.0,64,0.02,RA,FEW,0.02,WeatherDisplay:10.37,2013-03-06 11:00:00,
2013-03-06 13:00:00,55.1,49.4,29.77,SSE,165,5.0,15.0,81,0.07,RA,FEW,0.09,WeatherDisplay:10.37,2013-03-06 12:00:00,
2013-03-06 14:00:00,54.3,50.8,29.75,SSE,157,5.0,12.0,88,0.06,RA,FEW,0.16,WeatherDisplay:10.37,2013-03-06 13:00:00,
2013-03-06 15:00:00,55.5,50.4,29.73,SSE,155,5.0,13.0,83,0.01,RA,FEW,0.17,WeatherDisplay:10.37,2013-03-06 14:00:00,
2013-03-06 17:00:00,56.0,51.3,29.71,SSE,163,2.0,15.0,84,0.01,RA,FEW,0.18,WeatherDisplay:10.37,2013-03-06 16:00:00,
2013-03-06 18:00:00,55.2,51.7,29.70,SE,140,2.0,12.0,88,0.04,RA,FEW,0.22,WeatherDisplay:10.37,2013-03-06 17:00:00,
2013-03-06 19:00:00,55.1,51.9,29.72,SSE,154,2.0,10.0,89,0.02,RA,FEW,0.24,WeatherDisplay:10.37,2013-03-06 18:00:00,
2013-03-06 20:00:00,55.0,52.4,29.72,SE,144,1.0,12.0,91,0.01,CLR,FEW,0.24,WeatherDisplay:10.37,2013-03-06 19:00:00,
2013-03-06 21:00:00,54.9,52.3,29.72,SE,135,1.0,5.0,91,0.02,RA,FEW,0.27,WeatherDisplay:10.37,2013-03-06 20:00:00,
2013-03-06 22:00:00,55.3,52.7,29.72,ESE,105,1.0,4.0,91,0.01,CLR,FEW,0.28,WeatherDisplay:10.37,2013-03-06 21:00:00,
2013-03-06 23:00:00,55.4,52.8,29.72,SE,137,0.0,5.0,91,0.01,RA,FEW,0.28,WeatherDisplay:10.37,2013-03-06 22:00:00,